createdAt,value
2022-11-13T00:01:25.388Z,23.87
2022-11-13T00:03:52.570Z,24.13
2022-11-13T00:06:20.146Z,21.77
2022-11-13T00:08:47.540Z,19.70
2022-11-13T00:11:18.498Z,24.73
2022-11-13T00:13:45.952Z,21.20
2022-11-13T00:16:18.783Z,22.07
2022-11-13T00:18:46.077Z,21.63
2022-11-13T00:21:14.718Z,27.40
2022-11-13T00:23:41.386Z,22.07
2022-11-13T00:26:09.801Z,24.13
2022-11-13T00:28:36.629Z,20.47
2022-11-13T00:31:05.372Z,24.00
2022-11-13T00:33:59.770Z,26.53
2022-11-13T00:36:24.698Z,22.33
2022-11-13T00:38:53.130Z,24.20
2022-11-13T00:41:19.939Z,29.30
2022-11-13T00:43:46.482Z,24.63
2022-11-13T00:46:13.206Z,23.20
2022-11-13T00:48:40.614Z,24.13
2022-11-13T00:51:07.293Z,22.67
2022-11-13T00:53:33.773Z,24.13
2022-11-13T00:56:00.582Z,24.10
2022-11-13T00:58:28.279Z,21.27
2022-11-13T01:00:55.092Z,22.90
2022-11-13T01:03:21.641Z,22.80
2022-11-13T01:05:48.105Z,19.00
2022-11-13T01:08:15.492Z,18.57
2022-11-13T01:10:48.809Z,23.63
2022-11-13T01:13:18.466Z,23.10
2022-11-13T01:15:45.391Z,20.57
2022-11-13T01:18:12.258Z,17.80
2022-11-13T01:20:38.842Z,20.27
2022-11-13T01:23:05.278Z,21.07
2022-11-13T01:25:32.627Z,21.10
2022-11-13T01:27:59.102Z,21.83
2022-11-13T01:30:25.501Z,24.63
2022-11-13T01:32:51.929Z,21.13
2022-11-13T01:35:18.432Z,23.13
2022-11-13T01:37:44.880Z,22.83
2022-11-13T01:40:13.339Z,21.63
2022-11-13T01:42:39.787Z,23.07
2022-11-13T01:45:44.917Z,21.57
2022-11-13T01:48:12.505Z,23.87
2022-11-13T01:50:39.895Z,23.60
2022-11-13T01:53:07.417Z,22.03
2022-11-13T01:55:33.909Z,20.10
2022-11-13T01:58:02.198Z,21.90
2022-11-13T02:00:28.668Z,21.73
2022-11-13T02:02:55.546Z,20.77
2022-11-13T02:05:22.022Z,21.40
2022-11-13T02:07:48.807Z,24.50
2022-11-13T02:10:15.333Z,24.97
2022-11-13T02:12:46.571Z,25.50
2022-11-13T02:15:13.652Z,22.27
2022-11-13T02:17:45.366Z,28.93
2022-11-13T02:20:14.127Z,30.93
2022-11-13T02:23:04.226Z,30.00
2022-11-13T02:25:32.470Z,27.07
2022-11-13T02:27:59.179Z,34.83
2022-11-13T02:30:30.342Z,26.57
2022-11-13T02:32:58.497Z,28.10
2022-11-13T02:35:31.999Z,23.90
2022-11-13T02:38:01.581Z,25.03
2022-11-13T02:40:29.084Z,25.17
2022-11-13T02:42:55.633Z,27.00
2022-11-13T02:45:22.045Z,25.20
2022-11-13T02:47:48.620Z,26.27
2022-11-13T02:50:15.775Z,26.03
2022-11-13T02:52:42.450Z,29.10
2022-11-13T02:55:09.327Z,25.40
2022-11-13T02:57:35.833Z,23.90
2022-11-13T03:00:02.392Z,22.37
2022-11-13T03:02:28.826Z,23.60
2022-11-13T03:05:12.422Z,25.13
2022-11-13T03:07:39.763Z,22.83
2022-11-13T03:10:06.806Z,28.23
2022-11-13T03:12:33.934Z,25.77
2022-11-13T03:15:00.525Z,26.33
2022-11-13T03:17:27.098Z,24.13
2022-11-13T03:19:53.522Z,25.10
2022-11-13T03:22:19.982Z,23.43
2022-11-13T03:24:46.389Z,23.27
2022-11-13T03:27:12.858Z,27.30
2022-11-13T03:29:39.287Z,25.33
2022-11-13T03:32:06.116Z,22.20
2022-11-13T03:34:32.715Z,28.63
2022-11-13T03:36:59.316Z,24.30
2022-11-13T03:39:25.763Z,29.60
2022-11-13T03:41:52.324Z,30.17
2022-11-13T03:44:18.710Z,27.23
2022-11-13T03:46:45.161Z,28.57
2022-11-13T03:49:11.593Z,28.80
2022-11-13T03:51:38.042Z,26.93
2022-11-13T03:54:04.611Z,25.57
2022-11-13T03:56:31.053Z,28.97
2022-11-13T03:58:57.551Z,28.83
2022-11-13T04:01:24.112Z,28.07
2022-11-13T04:03:50.677Z,27.17
2022-11-13T04:06:17.571Z,28.00
2022-11-13T04:08:44.012Z,30.00
2022-11-13T04:11:13.007Z,34.90
2022-11-13T04:13:39.459Z,30.17
2022-11-13T04:16:06.347Z,31.53
2022-11-13T04:18:33.090Z,29.10
2022-11-13T04:21:01.165Z,27.20
2022-11-13T04:23:28.117Z,31.53
2022-11-13T04:25:54.702Z,37.43
2022-11-13T04:28:21.540Z,32.37
2022-11-13T04:30:48.021Z,29.33
2022-11-13T04:33:14.510Z,33.93
2022-11-13T04:35:45.608Z,31.20
2022-11-13T04:38:12.939Z,31.60
2022-11-13T04:40:40.570Z,29.90
2022-11-13T04:43:07.031Z,24.63
2022-11-13T04:45:34.121Z,29.57
2022-11-13T04:48:00.626Z,29.60
2022-11-13T04:50:27.164Z,26.57
2022-11-13T04:52:53.788Z,30.47
2022-11-13T04:55:20.336Z,29.17
2022-11-13T04:57:46.866Z,36.00
2022-11-13T05:00:13.667Z,32.57
2022-11-13T05:02:40.113Z,29.87
2022-11-13T05:05:07.118Z,30.00
2022-11-13T05:07:33.582Z,31.47
2022-11-13T05:10:00.130Z,33.30
2022-11-13T05:12:26.594Z,30.93
2022-11-13T05:14:53.032Z,32.00
2022-11-13T05:17:19.529Z,31.90
2022-11-13T05:19:45.923Z,30.57
2022-11-13T05:22:12.364Z,30.67
2022-11-13T05:24:38.851Z,30.70
2022-11-13T05:27:05.278Z,27.90
2022-11-13T05:29:31.826Z,31.87
2022-11-13T05:31:58.296Z,33.00
2022-11-13T05:34:24.721Z,28.90
2022-11-13T05:36:51.194Z,30.23
2022-11-13T05:39:17.622Z,29.33
2022-11-13T05:41:44.187Z,29.97
2022-11-13T05:44:10.608Z,31.27
2022-11-13T05:46:37.026Z,41.93
2022-11-13T05:49:03.590Z,33.87
2022-11-13T05:51:33.063Z,31.30
2022-11-13T05:53:59.867Z,28.37
2022-11-13T05:56:32.221Z,33.20
2022-11-13T05:58:59.662Z,30.47
2022-11-13T06:01:38.019Z,34.10
2022-11-13T06:04:05.924Z,28.70
2022-11-13T06:06:33.697Z,29.83
2022-11-13T06:09:02.025Z,32.33
2022-11-13T06:11:30.126Z,29.60
2022-11-13T06:13:58.480Z,32.30
2022-11-13T06:16:27.980Z,33.20
2022-11-13T06:19:00.335Z,33.67
2022-11-13T06:21:29.770Z,29.90
2022-11-13T06:24:00.610Z,34.33
2022-11-13T06:26:33.283Z,31.20
2022-11-13T06:29:01.033Z,33.63
2022-11-13T06:31:30.787Z,37.07
2022-11-13T06:33:59.355Z,32.00
2022-11-13T06:36:28.822Z,35.47
2022-11-13T06:38:55.463Z,34.07
2022-11-13T06:41:24.371Z,35.70
2022-11-13T06:43:51.079Z,33.27
2022-11-13T06:46:23.022Z,34.43
2022-11-13T06:48:50.121Z,34.70
2022-11-13T06:51:28.292Z,33.97
2022-11-13T06:53:55.000Z,33.50
2022-11-13T06:56:21.753Z,35.80
2022-11-13T06:58:48.592Z,44.33
2022-11-13T07:01:17.836Z,37.73
2022-11-13T07:03:44.864Z,35.67
2022-11-13T07:06:14.647Z,34.40
2022-11-13T07:08:44.254Z,33.40
2022-11-13T07:11:16.788Z,34.23
2022-11-13T07:13:43.722Z,37.60
2022-11-13T07:16:17.099Z,33.07
2022-11-13T07:18:51.820Z,38.10
2022-11-13T07:21:19.113Z,33.77
2022-11-13T07:23:48.242Z,35.50
2022-11-13T07:26:14.729Z,33.10
2022-11-13T07:28:41.259Z,33.70
2022-11-13T07:31:07.831Z,31.87
2022-11-13T07:33:34.751Z,33.80
2022-11-13T07:36:01.274Z,37.67
2022-11-13T07:38:28.424Z,31.97
2022-11-13T07:40:57.860Z,32.33
2022-11-13T07:43:24.760Z,49.23
2022-11-13T07:45:54.743Z,36.43
2022-11-13T07:48:22.290Z,39.53
2022-11-13T07:50:49.239Z,34.27
2022-11-13T07:53:15.923Z,33.83
2022-11-13T07:55:42.489Z,33.73
2022-11-13T07:58:09.292Z,32.13
2022-11-13T08:00:36.351Z,34.23
2022-11-13T08:03:08.548Z,30.93
2022-11-13T08:05:35.480Z,29.80
2022-11-13T08:08:02.737Z,28.83
2022-11-13T08:10:29.267Z,31.17
2022-11-13T08:13:07.017Z,30.80
2022-11-13T08:15:34.547Z,33.30
2022-11-13T08:18:03.547Z,33.60
2022-11-13T08:20:31.034Z,31.63
2022-11-13T08:22:59.235Z,33.00
2022-11-13T08:25:26.018Z,30.93
2022-11-13T08:27:54.056Z,33.73
2022-11-13T08:30:21.482Z,37.37
2022-11-13T08:32:48.744Z,31.70
2022-11-13T08:35:19.195Z,31.97
2022-11-13T08:37:46.828Z,32.13
2022-11-13T08:40:13.656Z,35.13
2022-11-13T08:42:40.155Z,33.27
2022-11-13T08:45:07.235Z,32.63
2022-11-13T08:47:33.706Z,28.60
2022-11-13T08:50:00.182Z,31.10
2022-11-13T08:52:26.665Z,32.63
2022-11-13T08:54:53.180Z,36.80
2022-11-13T08:57:19.647Z,39.23
2022-11-13T08:59:46.049Z,31.83
2022-11-13T09:02:15.461Z,32.07
2022-11-13T09:04:42.818Z,32.20
2022-11-13T09:07:09.505Z,35.87
2022-11-13T09:09:36.030Z,34.33
2022-11-13T09:12:02.607Z,32.47
2022-11-13T09:14:29.033Z,32.67
2022-11-13T09:16:55.491Z,37.77
2022-11-13T09:19:22.113Z,33.57
2022-11-13T09:21:48.582Z,33.77
2022-11-13T09:24:15.263Z,32.10
2022-11-13T09:26:41.699Z,35.83
2022-11-13T09:29:10.225Z,31.43
2022-11-13T09:31:39.416Z,37.30
2022-11-13T09:34:05.878Z,29.23
2022-11-13T09:36:32.370Z,29.80
2022-11-13T09:39:00.781Z,32.00
2022-11-13T09:41:31.598Z,30.67
2022-11-13T09:44:03.943Z,33.20
2022-11-13T09:46:39.906Z,33.93
2022-11-13T09:49:09.180Z,32.03
2022-11-13T09:51:38.113Z,31.40
2022-11-13T09:54:07.186Z,34.17
2022-11-13T09:56:39.752Z,32.13
2022-11-13T09:59:12.734Z,26.93
2022-11-13T10:01:48.744Z,30.47
2022-11-13T10:04:24.775Z,31.03
2022-11-13T10:07:23.805Z,26.30
2022-11-13T10:10:22.145Z,26.80
2022-11-13T10:12:52.910Z,28.80
2022-11-13T10:15:20.600Z,29.17
2022-11-13T10:17:56.420Z,28.87
2022-11-13T10:20:29.733Z,25.70
2022-11-13T10:23:18.552Z,29.90
2022-11-13T10:25:45.343Z,26.13
2022-11-13T10:28:48.139Z,27.63
2022-11-13T10:31:02.496Z,27.60
2022-11-13T10:33:29.387Z,26.87
2022-11-13T10:36:15.048Z,28.17
2022-11-13T10:38:46.453Z,28.30
2022-11-13T10:41:19.179Z,28.10
2022-11-13T10:44:01.878Z,28.40
2022-11-13T10:46:30.628Z,24.70
2022-11-13T10:49:13.855Z,31.03
2022-11-13T10:51:40.662Z,28.33
2022-11-13T10:54:20.941Z,28.33
2022-11-13T10:57:03.664Z,28.03
2022-11-13T10:59:42.452Z,24.37
2022-11-13T11:02:11.622Z,26.03
2022-11-13T11:04:38.237Z,26.77
2022-11-13T11:07:21.533Z,28.50
2022-11-13T11:09:50.308Z,30.90
2022-11-13T11:12:19.707Z,31.53
2022-11-13T11:15:01.465Z,29.43
2022-11-13T11:17:51.734Z,28.20
2022-11-13T11:20:31.753Z,32.53
2022-11-13T11:23:13.354Z,33.63
2022-11-13T11:25:46.485Z,33.67
2022-11-13T11:28:37.172Z,30.57
2022-11-13T11:31:15.433Z,31.90
2022-11-13T11:33:50.462Z,28.67
2022-11-13T11:36:28.931Z,31.27
2022-11-13T11:39:19.542Z,31.73
2022-11-13T11:42:12.260Z,29.77
2022-11-13T11:45:02.458Z,29.53
2022-11-13T11:47:29.085Z,29.73
2022-11-13T11:49:55.613Z,26.53
2022-11-13T11:52:45.954Z,26.93
2022-11-13T11:55:43.288Z,25.40
2022-11-13T11:58:32.526Z,22.60
2022-11-13T12:01:07.922Z,23.03
2022-11-13T12:04:09.374Z,22.50
2022-11-13T12:06:50.554Z,23.40
2022-11-13T12:09:43.970Z,19.50
2022-11-13T12:12:39.767Z,18.73
2022-11-13T12:15:42.857Z,20.50
2022-11-13T12:18:28.686Z,22.27
2022-11-13T12:21:16.193Z,20.43
2022-11-13T12:23:48.623Z,19.03
2022-11-13T12:26:43.822Z,18.07
2022-11-13T12:29:30.220Z,17.57
2022-11-13T12:32:02.692Z,18.53
2022-11-13T12:34:50.534Z,16.57
2022-11-13T12:37:28.334Z,18.90
2022-11-13T12:40:04.042Z,52.73
2022-11-13T12:42:48.676Z,20.67
2022-11-13T12:45:36.963Z,19.83
2022-11-13T12:48:34.084Z,18.50
2022-11-13T12:51:06.205Z,21.57
2022-11-13T12:53:49.091Z,15.07
2022-11-13T12:56:24.581Z,17.97
2022-11-13T12:59:29.116Z,19.67
2022-11-13T13:02:17.507Z,21.13
2022-11-13T13:04:58.647Z,13.80
2022-11-13T13:07:46.940Z,16.33
2022-11-13T13:10:27.365Z,18.20
2022-11-13T13:13:04.812Z,16.13
2022-11-13T13:15:43.047Z,16.63
2022-11-13T13:18:12.856Z,16.83
2022-11-13T13:20:45.343Z,18.73
2022-11-13T13:23:13.610Z,16.70
2022-11-13T13:25:40.944Z,16.53
2022-11-13T13:28:07.325Z,16.80
2022-11-13T13:30:54.466Z,20.80
2022-11-13T13:33:28.428Z,18.10
2022-11-13T13:35:54.825Z,17.00
2022-11-13T13:38:28.967Z,17.47
2022-11-13T13:41:18.690Z,16.73
2022-11-13T13:44:17.463Z,16.53
2022-11-13T13:46:43.979Z,16.37
2022-11-13T13:49:17.937Z,15.00
2022-11-13T13:51:48.051Z,17.43
2022-11-13T13:54:22.394Z,16.53
2022-11-13T13:56:49.422Z,18.60
2022-11-13T13:59:23.024Z,17.17
2022-11-13T14:01:58.640Z,14.13
2022-11-13T14:04:27.966Z,21.23
2022-11-13T14:06:59.557Z,18.57
2022-11-13T14:09:28.443Z,20.00
2022-11-13T14:12:09.020Z,19.53
2022-11-13T14:14:38.921Z,22.83
2022-11-13T14:17:05.858Z,21.27
2022-11-13T14:19:32.322Z,20.20
2022-11-13T14:22:01.821Z,21.13
2022-11-13T14:24:44.806Z,20.87
2022-11-13T14:27:15.561Z,24.23
2022-11-13T14:29:48.842Z,27.57
2022-11-13T14:32:22.441Z,27.50
2022-11-13T14:34:51.739Z,27.23
2022-11-13T14:37:39.413Z,31.47
2022-11-13T14:40:19.076Z,28.33
2022-11-13T14:42:48.542Z,28.30
2022-11-13T14:45:22.917Z,27.93
2022-11-13T14:48:25.463Z,27.70
2022-11-13T14:50:57.581Z,33.60
2022-11-13T14:53:38.914Z,34.10
2022-11-13T14:56:10.794Z,30.93
2022-11-13T14:58:37.207Z,29.30
2022-11-13T15:01:22.045Z,30.90
2022-11-13T15:03:49.804Z,32.70
2022-11-13T15:06:22.485Z,33.17
2022-11-13T15:08:51.570Z,30.40
2022-11-13T15:11:20.029Z,31.37
2022-11-13T15:13:46.966Z,30.80
2022-11-13T15:16:16.149Z,33.43
2022-11-13T15:18:54.274Z,28.40
2022-11-13T15:21:20.734Z,24.77
2022-11-13T15:23:47.159Z,29.27
2022-11-13T15:26:13.862Z,26.83
2022-11-13T15:28:40.543Z,27.23
2022-11-13T15:31:19.585Z,26.20
2022-11-13T15:33:46.224Z,20.00
2022-11-13T15:36:12.657Z,19.53
2022-11-13T15:38:39.545Z,18.33
2022-11-13T15:41:13.447Z,18.43
2022-11-13T15:43:44.170Z,18.47
2022-11-13T15:46:14.818Z,16.20
2022-11-13T15:48:41.599Z,17.10
2022-11-13T15:51:32.504Z,11.43
2022-11-13T15:54:02.906Z,10.03
2022-11-13T15:56:30.850Z,9.50
2022-11-13T15:58:57.298Z,9.07
2022-11-13T16:01:23.818Z,13.53
2022-11-13T16:03:51.096Z,10.40
2022-11-13T16:06:23.219Z,10.40
2022-11-13T16:08:50.229Z,10.17
2022-11-13T16:11:20.676Z,9.50
2022-11-13T16:13:47.377Z,10.50
2022-11-13T16:16:23.961Z,8.77
2022-11-13T16:18:54.593Z,13.47
2022-11-13T16:21:23.783Z,7.67
2022-11-13T16:23:50.209Z,9.63
2022-11-13T16:26:22.563Z,8.73
2022-11-13T16:29:13.917Z,10.50
2022-11-13T16:31:41.622Z,10.53
2022-11-13T16:34:08.050Z,9.80
2022-11-13T16:36:34.589Z,9.43
2022-11-13T16:39:01.174Z,10.20
2022-11-13T16:41:27.590Z,10.47
2022-11-13T16:43:54.018Z,9.60
2022-11-13T16:46:26.337Z,9.13
2022-11-13T16:48:53.371Z,15.50
2022-11-13T16:51:20.016Z,9.33
2022-11-13T16:53:46.615Z,11.43
2022-11-13T16:56:14.398Z,9.53
2022-11-13T16:58:40.983Z,7.67
2022-11-13T17:01:14.477Z,8.60
2022-11-13T17:03:41.935Z,9.40
2022-11-13T17:06:28.131Z,9.90
2022-11-13T17:08:59.510Z,9.67
2022-11-13T17:11:31.825Z,10.43
2022-11-13T17:14:00.677Z,8.03
2022-11-13T17:16:29.763Z,8.10
2022-11-13T17:18:56.703Z,7.17
2022-11-13T17:21:25.375Z,8.23
2022-11-13T17:23:59.555Z,10.93
2022-11-13T17:26:26.895Z,9.93
2022-11-13T17:28:53.845Z,8.17
2022-11-13T17:31:21.212Z,8.23
2022-11-13T17:33:47.700Z,9.67
2022-11-13T17:36:14.278Z,11.50
2022-11-13T17:38:40.983Z,9.27
2022-11-13T17:41:12.312Z,11.90
2022-11-13T17:43:40.689Z,8.83
2022-11-13T17:46:10.273Z,8.83
2022-11-13T17:48:37.197Z,6.57
2022-11-13T17:51:09.673Z,7.80
2022-11-13T17:53:36.194Z,8.93
2022-11-13T17:56:07.165Z,8.43
2022-11-13T17:58:42.435Z,8.50
2022-11-13T18:01:16.919Z,7.03
2022-11-13T18:03:43.545Z,8.53
2022-11-13T18:06:13.707Z,7.00
2022-11-13T18:08:43.171Z,7.63
2022-11-13T18:11:12.709Z,9.00
2022-11-13T18:13:39.177Z,7.27
2022-11-13T18:16:11.440Z,8.50
2022-11-13T18:18:37.919Z,8.10
2022-11-13T18:21:22.917Z,11.70
2022-11-13T18:23:56.520Z,7.97
2022-11-13T18:26:23.441Z,7.10
2022-11-13T18:28:49.868Z,9.77
2022-11-13T18:31:18.457Z,7.67
2022-11-13T18:33:45.378Z,8.50
2022-11-13T18:36:12.104Z,8.20
2022-11-13T18:38:38.727Z,9.07
2022-11-13T18:41:11.522Z,7.23
2022-11-13T18:43:38.569Z,9.83
2022-11-13T18:46:10.397Z,8.07
2022-11-13T18:48:38.585Z,10.03
2022-11-13T18:51:08.112Z,8.47
2022-11-13T18:53:34.564Z,10.93
2022-11-13T18:56:02.735Z,11.93
2022-11-13T18:58:30.103Z,14.37
2022-11-13T19:00:56.875Z,17.63
2022-11-13T19:03:24.681Z,11.50
2022-11-13T19:05:51.222Z,12.67
2022-11-13T19:08:17.670Z,9.33
2022-11-13T19:10:44.204Z,12.77
2022-11-13T19:13:12.701Z,12.20
2022-11-13T19:15:39.247Z,13.93
2022-11-13T19:18:06.934Z,12.60
2022-11-13T19:20:33.543Z,13.57
2022-11-13T19:23:00.331Z,12.67
2022-11-13T19:25:27.866Z,15.33
2022-11-13T19:27:54.485Z,14.27
2022-11-13T19:37:29.452Z,16.60
2022-11-13T19:39:55.914Z,11.63
2022-11-13T19:42:22.340Z,15.07
2022-11-13T19:44:48.779Z,16.60
2022-11-13T19:47:15.234Z,15.37
2022-11-13T19:49:41.640Z,15.60
2022-11-13T19:52:08.338Z,14.80
2022-11-13T19:54:35.356Z,15.93
2022-11-13T19:57:01.783Z,18.03
2022-11-13T19:59:28.228Z,15.00
2022-11-13T20:01:54.682Z,21.30
2022-11-13T20:04:21.257Z,26.17
2022-11-13T20:06:48.390Z,25.63
2022-11-13T20:09:14.881Z,25.23
2022-11-13T20:11:41.357Z,27.17
2022-11-13T20:14:10.463Z,28.50
2022-11-13T20:16:36.873Z,26.40
2022-11-13T20:19:03.352Z,29.83
2022-11-13T20:21:31.463Z,28.03
2022-11-13T20:23:59.412Z,26.00
2022-11-13T20:26:25.982Z,26.37
2022-11-13T20:28:52.579Z,27.00
2022-11-13T20:31:22.355Z,28.10
2022-11-13T20:33:54.158Z,23.73
2022-11-13T20:36:21.472Z,25.43
2022-11-13T20:38:53.531Z,21.73
2022-11-13T20:41:24.138Z,26.17
2022-11-13T20:43:51.806Z,27.43
2022-11-13T20:46:20.419Z,23.57
2022-11-13T20:48:47.175Z,25.30
2022-11-13T20:51:16.185Z,24.77
2022-11-13T20:53:43.213Z,28.73
2022-11-13T20:56:10.247Z,26.07
2022-11-13T20:58:36.933Z,28.90
2022-11-13T21:01:11.560Z,32.47
2022-11-13T21:03:41.288Z,25.87
2022-11-13T21:06:09.523Z,27.83
2022-11-13T21:08:36.469Z,29.17
2022-11-13T21:11:06.160Z,29.07
2022-11-13T21:13:33.369Z,25.80
2022-11-13T21:16:04.979Z,26.67
2022-11-13T21:18:31.802Z,33.40
2022-11-13T21:21:26.491Z,27.10
2022-11-13T21:23:56.417Z,28.90
2022-11-13T21:26:23.350Z,29.93
2022-11-13T21:28:53.063Z,30.30
2022-11-13T21:31:20.745Z,28.67
2022-11-13T21:33:48.861Z,29.77
2022-11-13T21:36:23.329Z,29.67
2022-11-13T21:38:52.576Z,27.63
2022-11-13T21:41:23.263Z,30.70
2022-11-13T21:43:58.020Z,31.57
2022-11-13T21:46:27.406Z,35.93
2022-11-13T21:49:02.569Z,29.33
2022-11-13T21:51:29.916Z,34.70
2022-11-13T21:53:57.212Z,29.10
2022-11-13T21:56:24.820Z,32.27
2022-11-13T21:58:51.434Z,35.20
2022-11-13T22:01:18.526Z,33.63
2022-11-13T22:03:45.038Z,35.00
2022-11-13T22:06:33.269Z,29.67
2022-11-13T22:09:15.005Z,33.87
2022-11-13T22:11:42.081Z,32.57
2022-11-13T22:14:08.658Z,29.67
2022-11-13T22:16:37.444Z,31.03
2022-11-13T22:19:06.447Z,34.03
2022-11-13T22:21:33.433Z,31.77
2022-11-13T22:24:00.276Z,36.33
2022-11-13T22:26:28.097Z,33.57
2022-11-13T22:28:55.689Z,35.93
2022-11-13T22:31:27.833Z,36.70
2022-11-13T22:33:55.436Z,32.93
2022-11-13T22:36:24.728Z,33.77
2022-11-13T22:38:51.727Z,31.87
2022-11-13T22:41:23.642Z,39.07
2022-11-13T22:43:52.816Z,35.97
2022-11-13T22:46:22.637Z,36.80
2022-11-13T22:48:51.229Z,35.00
2022-11-13T22:51:23.258Z,35.60
2022-11-13T22:53:52.207Z,32.33
2022-11-13T22:56:19.806Z,35.80
2022-11-13T22:58:46.588Z,34.87
2022-11-13T23:01:16.177Z,37.63
2022-11-13T23:03:44.652Z,39.93
2022-11-13T23:06:11.207Z,35.00
2022-11-13T23:08:39.092Z,37.63
2022-11-13T23:11:12.668Z,34.03
2022-11-13T23:13:44.493Z,37.13
2022-11-13T23:16:11.702Z,38.03
2022-11-13T23:18:39.273Z,37.57
2022-11-13T23:21:06.974Z,36.63
2022-11-13T23:23:33.601Z,40.53
2022-11-13T23:26:00.405Z,38.83
2022-11-13T23:28:28.131Z,38.97
2022-11-13T23:30:55.150Z,37.43
2022-11-13T23:33:22.098Z,38.30
2022-11-13T23:35:48.566Z,37.70
2022-11-13T23:38:15.412Z,42.10
2022-11-13T23:40:42.032Z,38.63
2022-11-13T23:43:09.179Z,40.03
2022-11-13T23:45:35.657Z,38.30
2022-11-13T23:48:02.532Z,37.53
2022-11-13T23:50:29.073Z,41.10
2022-11-13T23:52:55.567Z,32.43
2022-11-13T23:55:23.597Z,37.97
2022-11-13T23:58:00.816Z,40.57
